createdAt,value
2018-09-13T00:00:49.662Z,19.60
2018-09-13T00:03:18.245Z,19.50
2018-09-13T00:05:46.746Z,19.50
2018-09-13T00:08:15.617Z,19.50
2018-09-13T00:10:44.023Z,19.10
2018-09-13T00:13:12.401Z,18.90
2018-09-13T00:15:40.747Z,18.80
2018-09-13T00:18:09.077Z,19.00
2018-09-13T00:20:37.561Z,19.20
2018-09-13T00:23:06.534Z,19.20
2018-09-13T00:25:34.876Z,19.00
2018-09-13T00:28:03.358Z,19.00
2018-09-13T00:30:31.761Z,18.80
2018-09-13T00:33:00.134Z,18.60
2018-09-13T00:35:28.438Z,18.60
2018-09-13T00:37:57.054Z,18.50
2018-09-13T00:40:25.689Z,18.60
2018-09-13T00:42:54.154Z,18.60
2018-09-13T00:45:22.498Z,18.80
2018-09-13T00:47:50.835Z,18.90
2018-09-13T00:50:19.196Z,19.00
2018-09-13T00:52:47.570Z,19.10
2018-09-13T00:55:15.893Z,19.00
2018-09-13T00:57:44.472Z,19.10
2018-09-13T01:00:12.808Z,19.10
2018-09-13T01:02:41.151Z,19.10
2018-09-13T01:05:09.649Z,18.90
2018-09-13T01:07:37.981Z,18.90
2018-09-13T01:10:06.345Z,18.90
2018-09-13T01:12:34.786Z,19.00
2018-09-13T01:15:03.219Z,19.00
2018-09-13T01:17:31.567Z,19.00
2018-09-13T01:19:59.942Z,18.60
2018-09-13T01:22:28.577Z,18.50
2018-09-13T01:24:57.301Z,18.80
2018-09-13T01:27:27.169Z,18.80
2018-09-13T01:29:56.109Z,18.70
2018-09-13T01:32:24.484Z,18.50
2018-09-13T01:34:53.277Z,18.40
2018-09-13T01:37:21.659Z,18.30
2018-09-13T01:39:50.222Z,18.20
2018-09-13T01:42:18.537Z,18.10
2018-09-13T01:44:47.230Z,18.30
2018-09-13T01:47:15.886Z,18.50
2018-09-13T01:49:44.318Z,18.40
2018-09-13T01:52:12.612Z,18.30
2018-09-13T01:54:41.033Z,18.10
2018-09-13T01:57:09.379Z,18.10
2018-09-13T01:59:37.796Z,18.40
2018-09-13T02:02:06.237Z,18.50
2018-09-13T02:04:34.568Z,18.40
2018-09-13T02:07:02.917Z,18.40
2018-09-13T02:09:31.267Z,18.40
2018-09-13T02:11:59.656Z,18.10
2018-09-13T02:14:28.089Z,17.90
2018-09-13T02:16:56.793Z,17.90
2018-09-13T02:19:25.157Z,18.20
2018-09-13T02:21:53.525Z,18.20
2018-09-13T02:24:21.853Z,17.90
2018-09-13T02:26:50.169Z,17.90
2018-09-13T02:29:18.486Z,17.90
2018-09-13T02:31:47.839Z,17.90
2018-09-13T02:34:16.314Z,17.80
2018-09-13T02:36:44.738Z,17.70
2018-09-13T02:39:13.105Z,17.80
2018-09-13T02:41:41.582Z,18.00
2018-09-13T02:44:10.340Z,18.20
2018-09-13T02:46:39.294Z,18.30
2018-09-13T02:49:07.948Z,18.20
2018-09-13T02:51:36.209Z,18.00
2018-09-13T02:54:04.567Z,18.20
2018-09-13T02:56:32.999Z,18.30
2018-09-13T02:59:01.313Z,18.20
2018-09-13T03:01:29.634Z,17.90
2018-09-13T03:03:58.071Z,17.80
2018-09-13T03:06:26.427Z,17.70
2018-09-13T03:08:54.770Z,17.70
2018-09-13T03:11:23.170Z,17.70
2018-09-13T03:13:51.501Z,17.80
2018-09-13T03:16:20.073Z,17.80
2018-09-13T03:18:48.594Z,17.90
2018-09-13T03:21:16.929Z,17.80
2018-09-13T03:23:45.331Z,17.70
2018-09-13T03:26:13.672Z,17.70
2018-09-13T03:28:42.153Z,17.80
2018-09-13T03:31:10.661Z,17.80
2018-09-13T03:33:39.183Z,18.10
2018-09-13T03:36:07.708Z,18.20
2018-09-13T03:38:36.149Z,18.20
2018-09-13T03:41:04.508Z,18.00
2018-09-13T03:43:32.870Z,17.80
2018-09-13T03:46:01.230Z,17.90
2018-09-13T03:48:29.581Z,18.20
2018-09-13T03:50:57.893Z,18.10
2018-09-13T03:53:26.565Z,17.90
2018-09-13T03:55:54.938Z,17.90
2018-09-13T03:58:23.299Z,18.00
2018-09-13T04:00:51.628Z,18.10
2018-09-13T04:03:20.110Z,18.10
2018-09-13T04:05:48.561Z,18.20
2018-09-13T04:08:17.061Z,18.40
2018-09-13T04:10:45.386Z,18.20
2018-09-13T04:13:13.830Z,18.10
2018-09-13T04:15:42.262Z,18.30
2018-09-13T04:18:10.629Z,18.40
2018-09-13T04:20:39.257Z,18.40
2018-09-13T04:23:07.599Z,18.10
2018-09-13T04:25:35.959Z,18.00
2018-09-13T04:28:04.286Z,18.00
2018-09-13T04:30:32.603Z,18.10
2018-09-13T04:33:00.960Z,18.40
2018-09-13T04:35:29.351Z,18.50
2018-09-13T04:37:57.789Z,18.30
2018-09-13T04:40:26.153Z,18.40
2018-09-13T04:42:54.506Z,18.50
2018-09-13T04:45:22.850Z,18.30
2018-09-13T04:47:52.594Z,18.10
2018-09-13T04:50:20.930Z,17.90
2018-09-13T04:52:49.251Z,17.80
2018-09-13T04:55:17.609Z,17.90
2018-09-13T04:57:46.011Z,17.90
2018-09-13T05:00:14.577Z,17.80
2018-09-13T05:02:43.165Z,17.90
2018-09-13T05:05:11.490Z,17.80
2018-09-13T05:07:39.843Z,17.80
2018-09-13T05:10:08.246Z,17.80
2018-09-13T05:12:36.622Z,17.90
2018-09-13T05:15:05.161Z,18.00
2018-09-13T05:17:33.682Z,18.00
2018-09-13T05:20:02.133Z,18.20
2018-09-13T05:22:30.554Z,18.30
2018-09-13T05:25:00.400Z,18.20
2018-09-13T05:27:28.735Z,18.00
2018-09-13T05:29:57.045Z,18.00
2018-09-13T05:32:25.457Z,18.00
2018-09-13T05:34:53.814Z,17.90
2018-09-13T05:37:22.257Z,18.00
2018-09-13T05:39:50.602Z,17.90
2018-09-13T05:42:18.931Z,18.00
2018-09-13T05:44:47.353Z,18.00
2018-09-13T05:47:15.734Z,18.20
2018-09-13T05:49:44.122Z,18.30
2018-09-13T05:52:12.696Z,18.40
2018-09-13T05:54:41.199Z,18.40
2018-09-13T05:57:09.541Z,18.30
2018-09-13T05:59:38.090Z,18.40
2018-09-13T06:02:13.161Z,18.30
2018-09-13T06:04:41.548Z,18.10
2018-09-13T06:07:09.941Z,18.10
2018-09-13T06:09:38.378Z,18.10
2018-09-13T06:12:06.744Z,18.00
2018-09-13T06:14:35.178Z,18.00
2018-09-13T06:17:03.638Z,18.00
2018-09-13T06:19:32.170Z,18.10
2018-09-13T06:22:00.554Z,18.20
2018-09-13T06:24:28.956Z,18.10
2018-09-13T06:26:57.446Z,18.20
2018-09-13T06:29:25.895Z,18.20
2018-09-13T06:31:54.173Z,18.20
2018-09-13T06:34:22.654Z,18.20
2018-09-13T06:36:51.065Z,18.30
2018-09-13T06:39:19.554Z,18.20
2018-09-13T06:41:48.058Z,18.30
2018-09-13T06:44:16.437Z,18.20
2018-09-13T06:46:44.860Z,18.20
2018-09-13T06:49:13.298Z,18.30
2018-09-13T06:51:41.638Z,18.30
2018-09-13T06:54:10.076Z,18.30
2018-09-13T06:56:38.545Z,18.30
2018-09-13T06:59:06.967Z,18.20
2018-09-13T07:01:35.356Z,18.20
2018-09-13T07:04:03.985Z,18.20
2018-09-13T07:06:32.357Z,18.40
2018-09-13T07:09:00.716Z,18.40
2018-09-13T07:11:29.045Z,18.40
2018-09-13T07:13:57.494Z,18.50
2018-09-13T07:16:25.901Z,18.70
2018-09-13T07:18:54.294Z,19.00
2018-09-13T07:21:22.637Z,18.80
2018-09-13T07:23:52.282Z,19.00
2018-09-13T07:26:20.606Z,19.40
2018-09-13T07:28:48.974Z,19.60
2018-09-13T07:31:17.327Z,19.90
2018-09-13T07:33:45.708Z,20.80
2018-09-13T07:36:14.113Z,20.50
2018-09-13T07:38:42.617Z,20.30
2018-09-13T07:41:10.962Z,20.40
2018-09-13T07:43:39.562Z,20.50
2018-09-13T07:46:07.881Z,20.40
2018-09-13T07:48:36.292Z,20.40
2018-09-13T07:51:04.732Z,21.10
2018-09-13T07:53:33.052Z,21.50
2018-09-13T07:56:01.453Z,21.30
2018-09-13T07:58:29.974Z,20.60
2018-09-13T08:00:58.310Z,20.10
2018-09-13T08:03:26.944Z,20.30
2018-09-13T08:05:55.263Z,20.70
2018-09-13T08:08:23.650Z,20.60
2018-09-13T08:10:52.011Z,20.20
2018-09-13T08:13:20.357Z,20.20
2018-09-13T08:15:48.697Z,20.40
2018-09-13T08:18:17.210Z,20.80
2018-09-13T08:20:45.601Z,21.10
2018-09-13T08:23:13.938Z,21.20
2018-09-13T08:25:42.598Z,21.10
2018-09-13T08:28:11.044Z,21.60
2018-09-13T08:30:39.485Z,21.80
2018-09-13T08:33:08.008Z,22.80
2018-09-13T08:35:37.373Z,24.20
2018-09-13T08:38:05.790Z,25.00
2018-09-13T08:40:34.273Z,25.70
2018-09-13T08:43:03.026Z,25.20
2018-09-13T08:45:31.489Z,24.40
2018-09-13T08:47:59.873Z,23.50
2018-09-13T08:50:28.441Z,24.50
2018-09-13T08:52:56.954Z,24.40
2018-09-13T08:55:26.509Z,23.80
2018-09-13T08:57:54.938Z,23.10
2018-09-13T09:00:23.253Z,23.20
2018-09-13T09:02:51.666Z,23.10
2018-09-13T09:05:20.061Z,22.70
2018-09-13T09:07:48.533Z,23.20
2018-09-13T09:10:16.876Z,23.10
2018-09-13T09:12:45.429Z,22.80
2018-09-13T09:15:13.844Z,23.70
2018-09-13T09:17:42.429Z,24.80
2018-09-13T09:20:10.832Z,24.40
2018-09-13T09:22:39.341Z,23.20
2018-09-13T09:25:07.966Z,22.80
2018-09-13T09:27:36.356Z,23.00
2018-09-13T09:30:05.291Z,23.10
2018-09-13T09:32:33.645Z,22.80
2018-09-13T09:35:02.111Z,22.80
2018-09-13T09:37:30.395Z,22.90
2018-09-13T09:39:58.832Z,23.30
2018-09-13T09:42:27.250Z,23.10
2018-09-13T09:44:55.654Z,22.50
2018-09-13T09:47:23.969Z,22.00
2018-09-13T09:49:52.369Z,21.80
2018-09-13T09:52:21.014Z,21.90
2018-09-13T09:54:49.367Z,22.00
2018-09-13T09:57:17.769Z,21.90
2018-09-13T09:59:46.139Z,22.00
2018-09-13T10:02:19.055Z,22.60
2018-09-13T10:04:48.093Z,23.20
2018-09-13T10:07:16.518Z,22.70
2018-09-13T10:09:45.620Z,22.50
2018-09-13T10:12:14.502Z,22.90
2018-09-13T10:14:47.137Z,23.50
2018-09-13T10:17:20.969Z,23.20
2018-09-13T10:19:54.686Z,22.70
2018-09-13T10:22:28.288Z,22.30
2018-09-13T10:25:02.028Z,22.60
2018-09-13T10:27:35.877Z,23.00
2018-09-13T10:30:09.930Z,22.60
2018-09-13T10:32:43.858Z,22.30
2018-09-13T10:35:17.585Z,22.40
2018-09-13T10:37:51.526Z,22.70
2018-09-13T10:40:25.096Z,22.50
2018-09-13T10:42:58.886Z,22.50
2018-09-13T10:46:36.634Z,22.50
2018-09-13T10:49:10.455Z,22.30
2018-09-13T10:51:44.278Z,22.20
2018-09-13T10:54:18.174Z,22.20
2018-09-13T10:56:46.453Z,22.20
2018-09-13T10:59:14.870Z,22.50
2018-09-13T11:01:43.169Z,22.90
2018-09-13T11:04:11.600Z,23.30
2018-09-13T11:06:39.898Z,23.60
2018-09-13T11:09:08.393Z,23.40
2018-09-13T11:11:36.722Z,23.20
2018-09-13T11:14:09.558Z,23.20
2018-09-13T11:16:37.915Z,23.00
2018-09-13T11:19:06.374Z,23.20
2018-09-13T11:21:34.845Z,23.10
2018-09-13T11:24:03.338Z,23.20
2018-09-13T11:26:31.838Z,23.30
2018-09-13T11:29:00.450Z,23.30
2018-09-13T11:31:28.771Z,23.40
2018-09-13T11:33:57.294Z,23.40
2018-09-13T11:36:25.670Z,23.40
2018-09-13T11:38:54.053Z,23.10
2018-09-13T11:41:22.397Z,23.00
2018-09-13T11:43:50.830Z,23.50
2018-09-13T11:46:25.091Z,23.40
2018-09-13T11:48:53.445Z,23.90
2018-09-13T11:51:21.989Z,23.70
2018-09-13T11:53:50.353Z,23.60
2018-09-13T11:56:18.706Z,23.60
2018-09-13T11:58:47.213Z,23.60
2018-09-13T12:01:15.598Z,23.60
2018-09-13T12:03:43.900Z,24.00
2018-09-13T12:06:12.569Z,24.00
2018-09-13T12:08:41.238Z,24.20
2018-09-13T12:11:09.628Z,24.20
2018-09-13T12:13:38.013Z,24.20
2018-09-13T12:16:07.743Z,24.70
2018-09-13T12:18:36.057Z,25.20
2018-09-13T12:21:04.425Z,24.90
2018-09-13T12:23:32.846Z,24.70
2018-09-13T12:26:01.304Z,25.00
2018-09-13T12:28:29.623Z,24.70
2018-09-13T12:30:58.136Z,24.70
2018-09-13T12:33:26.534Z,24.10
2018-09-13T12:35:55.022Z,23.90
2018-09-13T12:38:23.627Z,23.80
2018-09-13T12:40:52.067Z,23.70
2018-09-13T12:43:20.391Z,23.60
2018-09-13T12:45:48.944Z,24.00
2018-09-13T12:48:17.294Z,24.10
2018-09-13T12:50:45.993Z,24.50
2018-09-13T12:53:14.358Z,24.50
2018-09-13T12:55:48.257Z,24.40
2018-09-13T12:58:16.689Z,24.20
2018-09-13T13:00:45.134Z,24.10
2018-09-13T13:03:13.584Z,23.90
2018-09-13T13:05:41.961Z,24.30
2018-09-13T13:08:10.313Z,24.90
2018-09-13T13:10:38.778Z,25.20
2018-09-13T13:13:07.111Z,24.90
2018-09-13T13:15:35.582Z,24.10
2018-09-13T13:18:04.218Z,23.90
2018-09-13T13:20:32.625Z,23.90
2018-09-13T13:23:00.970Z,23.70
2018-09-13T13:25:29.621Z,23.90
2018-09-13T13:27:57.994Z,23.90
2018-09-13T13:30:26.692Z,24.30
2018-09-13T13:32:55.100Z,24.50
2018-09-13T13:35:23.548Z,25.10
2018-09-13T13:37:51.919Z,24.90
2018-09-13T13:40:20.669Z,25.20
2018-09-13T13:42:49.330Z,25.50
2018-09-13T13:45:17.680Z,24.70
2018-09-13T13:47:52.870Z,24.50
2018-09-13T13:50:21.266Z,24.50
2018-09-13T13:52:49.609Z,24.50
2018-09-13T13:55:17.970Z,24.60
2018-09-13T13:57:46.570Z,24.50
2018-09-13T14:00:15.156Z,24.30
2018-09-13T14:02:43.859Z,24.20
2018-09-13T14:05:12.272Z,24.20
2018-09-13T14:07:40.730Z,24.10
2018-09-13T14:10:09.184Z,24.20
2018-09-13T14:12:37.505Z,24.30
2018-09-13T14:15:06.658Z,24.40
2018-09-13T14:17:35.350Z,24.30
2018-09-13T14:20:03.845Z,24.20
2018-09-13T14:22:32.189Z,24.20
2018-09-13T14:25:00.600Z,24.00
2018-09-13T14:27:29.257Z,23.90
2018-09-13T14:29:57.764Z,24.00
2018-09-13T14:32:26.037Z,24.30
2018-09-13T14:34:54.535Z,24.40
2018-09-13T14:37:22.872Z,24.90
2018-09-13T14:39:51.189Z,24.60
2018-09-13T14:42:19.647Z,24.30
2018-09-13T14:44:47.970Z,24.40
2018-09-13T14:47:16.450Z,24.10
2018-09-13T14:49:44.782Z,24.00
2018-09-13T14:52:13.203Z,23.90
2018-09-13T14:54:41.692Z,23.80
2018-09-13T14:57:10.064Z,23.70
2018-09-13T14:59:38.385Z,23.30
2018-09-13T15:02:06.781Z,23.20
2018-09-13T15:04:35.379Z,23.00
2018-09-13T15:07:03.870Z,22.90
2018-09-13T15:09:32.189Z,22.80
2018-09-13T15:12:00.633Z,22.70
2018-09-13T15:14:29.036Z,22.60
2018-09-13T15:16:57.344Z,22.40
2018-09-13T15:19:25.718Z,22.30
2018-09-13T15:21:54.153Z,21.80
2018-09-13T15:24:22.751Z,21.50
2018-09-13T15:26:51.043Z,21.40
2018-09-13T15:29:19.721Z,21.50
2018-09-13T15:31:48.102Z,21.10
2018-09-13T15:34:16.452Z,20.90
2018-09-13T15:36:44.892Z,20.90
2018-09-13T15:39:13.649Z,20.90
2018-09-13T15:41:42.372Z,20.80
2018-09-13T15:44:10.742Z,20.70
2018-09-13T15:46:39.145Z,20.70
2018-09-13T15:49:07.892Z,20.50
2018-09-13T15:51:36.595Z,20.60
2018-09-13T15:54:05.110Z,20.70
2018-09-13T15:56:33.559Z,20.80
2018-09-13T15:59:01.925Z,20.60
2018-09-13T16:01:30.425Z,20.70
2018-09-13T16:03:58.766Z,20.50
2018-09-13T16:06:27.346Z,20.60
2018-09-13T16:08:55.704Z,20.50
2018-09-13T16:11:24.080Z,20.40
2018-09-13T16:13:52.484Z,20.20
2018-09-13T16:16:20.884Z,19.80
2018-09-13T16:18:49.219Z,19.60
2018-09-13T16:21:17.636Z,19.30
2018-09-13T16:23:45.974Z,19.20
2018-09-13T16:26:14.471Z,19.00
2018-09-13T16:28:42.814Z,18.90
2018-09-13T16:31:11.338Z,18.90
2018-09-13T16:33:39.911Z,18.80
2018-09-13T16:36:13.752Z,18.70
2018-09-13T16:38:48.494Z,18.50
2018-09-13T16:42:20.051Z,18.50
2018-09-13T16:44:54.481Z,18.60
2018-09-13T16:47:32.091Z,18.30
2018-09-13T16:50:01.990Z,18.30
2018-09-13T16:52:31.144Z,18.40
2018-09-13T16:54:59.598Z,18.50
2018-09-13T16:57:27.995Z,18.50
2018-09-13T16:59:56.355Z,18.50
2018-09-13T17:02:25.058Z,18.30
2018-09-13T17:04:53.754Z,18.50
2018-09-13T17:07:22.331Z,18.50
2018-09-13T17:09:50.666Z,18.60
2018-09-13T17:12:19.397Z,18.50
2018-09-13T17:14:47.909Z,18.50
2018-09-13T17:17:16.292Z,18.40
2018-09-13T17:19:44.646Z,18.40
2018-09-13T17:22:13.031Z,18.40
2018-09-13T17:24:41.429Z,18.30
2018-09-13T17:27:09.862Z,18.30
2018-09-13T17:29:38.248Z,18.20
2018-09-13T17:32:06.606Z,18.00
2018-09-13T17:34:35.038Z,18.10
2018-09-13T17:37:03.578Z,18.00
2018-09-13T17:39:32.083Z,17.90
2018-09-13T17:42:00.480Z,17.90
2018-09-13T17:44:28.976Z,17.70
2018-09-13T17:46:57.637Z,17.60
2018-09-13T17:49:25.973Z,17.60
2018-09-13T17:51:54.707Z,17.70
2018-09-13T17:54:23.115Z,17.70
2018-09-13T17:56:51.652Z,17.70
2018-09-13T17:59:20.007Z,17.60
2018-09-13T18:01:48.892Z,17.50
2018-09-13T18:04:17.260Z,17.40
2018-09-13T18:06:45.662Z,17.10
2018-09-13T18:09:14.057Z,16.90
2018-09-13T18:11:42.565Z,16.90
2018-09-13T18:14:11.089Z,16.90
2018-09-13T18:16:39.549Z,17.00
2018-09-13T18:19:07.966Z,17.20
2018-09-13T18:21:36.443Z,17.10
2018-09-13T18:24:05.038Z,17.00
2018-09-13T18:26:33.370Z,17.00
2018-09-13T18:29:01.822Z,17.40
2018-09-13T18:31:30.281Z,17.50
2018-09-13T18:33:58.788Z,17.40
2018-09-13T18:36:27.120Z,17.20
2018-09-13T18:38:55.542Z,17.40
2018-09-13T18:41:23.887Z,17.40
2018-09-13T18:43:52.246Z,17.20
2018-09-13T18:46:20.786Z,17.30
2018-09-13T18:48:49.314Z,17.50
2018-09-13T18:51:17.865Z,17.20
2018-09-13T18:53:46.247Z,16.90
2018-09-13T18:56:14.699Z,16.90
2018-09-13T18:58:43.164Z,17.00
2018-09-13T19:01:11.672Z,17.30
2018-09-13T19:03:40.047Z,17.40
2018-09-13T19:06:08.662Z,17.40
2018-09-13T19:08:37.005Z,17.40
2018-09-13T19:11:05.480Z,17.10
2018-09-13T19:13:33.973Z,17.10
2018-09-13T19:16:02.408Z,16.90
2018-09-13T19:18:30.838Z,16.90
2018-09-13T19:20:59.262Z,16.80
2018-09-13T19:23:27.628Z,16.90
2018-09-13T19:25:56.105Z,17.00
2018-09-13T19:28:24.636Z,17.00
2018-09-13T19:30:53.130Z,16.90
2018-09-13T19:33:21.567Z,16.80
2018-09-13T19:35:49.912Z,16.70
2018-09-13T19:38:18.577Z,16.80
2018-09-13T19:40:47.046Z,16.90
2018-09-13T19:43:15.531Z,16.90
2018-09-13T19:45:43.975Z,16.90
2018-09-13T19:48:12.633Z,17.00
2018-09-13T19:50:41.137Z,16.90
2018-09-13T19:53:09.579Z,16.90
2018-09-13T19:55:37.975Z,17.10
2018-09-13T19:58:06.472Z,17.10
2018-09-13T20:00:35.098Z,17.00
2018-09-13T20:03:03.495Z,17.20
2018-09-13T20:05:33.231Z,17.20
2018-09-13T20:08:01.724Z,16.90
2018-09-13T20:10:30.141Z,16.90
2018-09-13T20:12:58.658Z,17.00
2018-09-13T20:15:27.176Z,17.10
2018-09-13T20:17:55.808Z,17.10
2018-09-13T20:20:24.150Z,17.10
2018-09-13T20:22:52.512Z,16.90
2018-09-13T20:25:20.933Z,16.90
2018-09-13T20:27:49.315Z,16.90
2018-09-13T20:30:17.748Z,17.00
2018-09-13T20:32:46.132Z,17.00
2018-09-13T20:35:14.521Z,17.10
2018-09-13T20:37:42.877Z,17.20
2018-09-13T20:40:11.286Z,17.10
2018-09-13T20:42:39.761Z,16.90
2018-09-13T20:45:07.998Z,17.00
2018-09-13T20:47:36.492Z,17.20
2018-09-13T20:50:04.894Z,17.30
2018-09-13T20:52:33.326Z,17.20
2018-09-13T20:55:01.869Z,17.30
2018-09-13T20:57:30.202Z,17.10
2018-09-13T20:59:59.479Z,17.00
2018-09-13T21:02:27.874Z,17.00
2018-09-13T21:04:56.321Z,17.10
2018-09-13T21:07:24.963Z,17.20
2018-09-13T21:09:53.730Z,17.20
2018-09-13T21:12:22.337Z,17.20
2018-09-13T21:14:50.781Z,17.20
2018-09-13T21:17:19.214Z,17.20
2018-09-13T21:19:47.550Z,17.10
2018-09-13T21:22:16.337Z,17.00
2018-09-13T21:24:44.819Z,16.90
2018-09-13T21:27:13.254Z,16.80
2018-09-13T21:29:41.635Z,16.90
2018-09-13T21:32:10.006Z,16.80
2018-09-13T21:34:38.425Z,16.80
2018-09-13T21:37:08.200Z,17.10
2018-09-13T21:39:36.517Z,17.20
2018-09-13T21:42:04.842Z,17.10
2018-09-13T21:44:33.254Z,17.00
2018-09-13T21:47:01.662Z,17.10
2018-09-13T21:49:29.986Z,17.20
2018-09-13T21:51:58.319Z,17.10
2018-09-13T21:54:26.810Z,17.20
2018-09-13T21:56:55.162Z,17.30
2018-09-13T21:59:23.526Z,17.30
2018-09-13T22:01:51.877Z,17.30
2018-09-13T22:04:20.311Z,17.30
2018-09-13T22:06:48.769Z,17.30
2018-09-13T22:09:17.186Z,17.30
2018-09-13T22:11:45.614Z,17.30
2018-09-13T22:14:13.987Z,17.30
2018-09-13T22:16:42.617Z,17.30
2018-09-13T22:19:10.957Z,17.30
2018-09-13T22:21:39.418Z,17.20
2018-09-13T22:24:07.909Z,17.10
2018-09-13T22:26:36.381Z,17.20
2018-09-13T22:29:05.216Z,17.20
2018-09-13T22:31:34.426Z,17.20
2018-09-13T22:34:03.398Z,17.20
2018-09-13T22:36:31.726Z,17.20
2018-09-13T22:39:00.093Z,17.20
2018-09-13T22:41:28.502Z,17.10
2018-09-13T22:43:56.818Z,17.10
2018-09-13T22:46:25.202Z,17.00
2018-09-13T22:48:53.535Z,16.90
2018-09-13T22:51:21.845Z,16.80
2018-09-13T22:53:50.233Z,16.80
2018-09-13T22:56:18.570Z,16.70
2018-09-13T22:58:47.287Z,16.60
2018-09-13T23:01:15.701Z,16.60
2018-09-13T23:03:44.113Z,16.70
2018-09-13T23:06:12.582Z,16.60
2018-09-13T23:08:40.947Z,16.50
2018-09-13T23:11:09.649Z,16.40
2018-09-13T23:13:37.970Z,16.50
2018-09-13T23:16:06.709Z,16.60
2018-09-13T23:18:34.945Z,16.70
2018-09-13T23:21:03.501Z,16.70
2018-09-13T23:23:32.517Z,16.50
2018-09-13T23:26:00.854Z,16.40
2018-09-13T23:28:29.194Z,16.20
2018-09-13T23:30:57.662Z,16.40
2018-09-13T23:33:26.032Z,16.50
2018-09-13T23:35:54.362Z,16.60
2018-09-13T23:38:22.790Z,16.70
2018-09-13T23:40:51.418Z,16.70
2018-09-13T23:43:19.749Z,16.80
2018-09-13T23:45:48.101Z,16.80
2018-09-13T23:48:16.442Z,16.70
2018-09-13T23:50:44.770Z,16.70
2018-09-13T23:53:13.242Z,16.70
2018-09-13T23:55:41.794Z,16.50
2018-09-13T23:58:10.237Z,16.50
